CMH weather

John Glenn Columbus International Airport
Columbus, Ohio, United States

Public forecast

Using degrees Fahrenheit for public forecast. Weather courtesy of forecast.io.

Current aviation weather report (METAR) for John Glenn Columbus International Airport

Retrieved 2019/10/18 06:51 UTC (30 minutes ago):

KCMH 180651Z 00000KT 10SM CLR 06/03 A3001 RMK AO2 SLP165 T00560028

Aviation forecast (TAF) for John Glenn Columbus International Airport

Retrieved 2019/10/18 06:24 UTC (57 minutes ago):

TAF KCMH 180521Z 1806/1906 30006KT P6SM SCT040 FM180900 33004KT P6SM FEW040 FM181500 VRB03KT P6SM SCT250 FM181800 VRB03KT P6SM SCT250 FM190000 11003KT P6SM SKC